Time;durP1;ratioP1;P1;durP2;ratioP2;P2;SDS_P1;SDS_P2;PMS_P1;PMS_P2;Temp;Humidity;BMP_temperature;BMP_pressure;BME280_temperature;BME280_humidity;BME280_pressure;Samples;Min_cycle;Max_cycle;Signal;HPM_P1;HPM_P2
2021/12/20 00:00:57;;;;;;;18.97;13.23;;;;;;;2.81;100.00;152086.56;5050771;28;20466;-82
2021/12/20 00:03:32;;;;;;;21.53;13.70;;;;;;;2.82;100.00;152090.44;5051846;28;20489;-83
2021/12/20 00:06:08;;;;;;;21.00;13.10;;;;;;;2.82;100.00;152089.16;5055102;28;20442;-82
2021/12/20 00:08:44;;;;;;;18.70;12.60;;;;;;;2.83;100.00;152091.75;5042178;28;20455;-82
2021/12/20 00:11:19;;;;;;;17.70;11.93;;;;;;;2.81;100.00;152087.84;5046463;28;20442;-82
2021/12/20 00:13:55;;;;;;;21.13;13.53;;;;;;;2.81;100.00;152086.56;5034311;28;20494;-82
2021/12/20 00:16:32;;;;;;;18.50;12.97;;;;;;;2.83;100.00;152093.00;5048485;28;22220;-82
2021/12/20 00:19:09;;;;;;;20.50;14.07;;;;;;;2.83;100.00;152093.00;5059904;28;20812;-83
2021/12/20 00:21:44;;;;;;;20.13;13.40;;;;;;;2.86;100.00;152099.47;5051007;28;20443;-82
2021/12/20 00:24:20;;;;;;;18.87;13.10;;;;;;;2.89;100.00;152107.16;5050361;28;20960;-83
2021/12/20 00:26:56;;;;;;;18.17;11.70;;;;;;;2.86;100.00;152100.72;5029133;28;20955;-83
2021/12/20 00:29:31;;;;;;;20.27;12.60;;;;;;;2.85;100.00;152096.88;5034872;28;20457;-82
2021/12/20 00:32:08;;;;;;;19.90;12.73;;;;;;;2.85;100.00;152096.88;5035146;28;20437;-82
2021/12/20 00:34:45;;;;;;;17.80;12.10;;;;;;;2.86;100.00;152099.47;5056947;28;20458;-82
2021/12/20 00:40:21;;;;;;;19.23;12.83;;;;;;;2.86;100.00;152099.47;5032627;28;20471;-83
2021/12/20 00:42:59;;;;;;;20.23;13.37;;;;;;;2.87;100.00;152102.00;5057359;28;20537;-82
2021/12/20 00:45:37;;;;;;;21.50;12.17;;;;;;;2.87;100.00;152103.31;5052682;28;20442;-83
2021/12/20 00:48:14;;;;;;;19.27;13.93;;;;;;;2.88;100.00;152104.59;5035293;28;20438;-82
2021/12/20 00:50:49;;;;;;;18.53;13.10;;;;;;;2.85;100.00;152098.19;5051308;28;20536;-82
2021/12/20 00:53:25;;;;;;;19.93;13.97;;;;;;;2.89;100.00;152107.16;5035567;28;20462;-82
2021/12/20 00:56:00;;;;;;;17.57;13.50;;;;;;;2.88;100.00;152104.59;5053285;28;20454;-83
2021/12/20 00:58:36;;;;;;;19.97;13.43;;;;;;;2.87;100.00;152102.00;5049920;28;20478;-82
2021/12/20 01:01:12;;;;;;;19.37;14.37;;;;;;;2.87;100.00;152102.00;5031955;28;20479;-82
2021/12/20 01:03:48;;;;;;;20.23;13.10;;;;;;;2.87;100.00;152102.00;5050860;28;20492;-82
2021/12/20 01:06:24;;;;;;;18.67;12.63;;;;;;;2.88;100.00;152105.91;5050232;28;20454;-82
2021/12/20 01:09:00;;;;;;;22.77;15.33;;;;;;;2.88;100.00;152105.91;5040656;28;20458;-83
2021/12/20 01:11:40;;;;;;;21.00;14.67;;;;;;;2.84;100.00;152094.28;5047645;28;20443;-82
2021/12/20 01:14:22;;;;;;;24.80;16.10;;;;;;;2.83;100.00;152091.75;5040625;28;20454;-82
2021/12/20 01:17:03;;;;;;;20.70;14.27;;;;;;;2.83;100.00;152091.75;5047150;28;20447;-82
2021/12/20 01:19:40;;;;;;;19.10;13.40;;;;;;;2.84;100.00;152094.28;5045431;28;20994;-82
2021/12/20 01:22:15;;;;;;;19.67;14.50;;;;;;;2.83;100.00;152093.00;5045579;28;20872;-83
2021/12/20 01:24:51;;;;;;;23.50;15.30;;;;;;;2.84;100.00;152094.28;5034318;28;20453;-82
2021/12/20 01:27:30;;;;;;;22.43;14.90;;;;;;;2.84;100.00;152094.28;5054082;28;20455;-83
2021/12/20 01:30:07;;;;;;;22.30;14.70;;;;;;;2.84;100.00;152094.28;5035106;28;20447;-82
2021/12/20 01:32:44;;;;;;;20.50;14.03;;;;;;;2.83;100.00;152093.00;5047841;28;20445;-82
2021/12/20 01:35:23;;;;;;;21.20;14.50;;;;;;;2.83;100.00;152093.00;5049972;28;20441;-82
2021/12/20 01:37:58;;;;;;;23.07;14.47;;;;;;;2.84;100.00;152094.28;5053313;28;20481;-82
2021/12/20 01:40:35;;;;;;;19.60;14.50;;;;;;;2.83;100.00;152093.00;5052977;28;20472;-82
2021/12/20 01:43:12;;;;;;;20.73;13.37;;;;;;;2.83;100.00;152091.75;5053132;28;20482;-82
2021/12/20 01:45:50;;;;;;;19.93;14.50;;;;;;;2.81;100.00;152086.56;5052502;28;20439;-82
2021/12/20 01:48:25;;;;;;;20.20;14.57;;;;;;;2.81;100.00;152086.56;5048848;28;20540;-82
2021/12/20 01:53:58;;;;;;;23.23;15.40;;;;;;;2.78;100.00;152080.13;5053512;28;20443;-83
2021/12/20 01:56:37;;;;;;;20.87;13.90;;;;;;;2.78;100.00;152078.88;5052278;28;20952;-83
2021/12/20 01:59:12;;;;;;;22.00;14.40;;;;;;;2.77;100.00;152076.28;5040826;28;20459;-83
2021/12/20 02:01:54;;;;;;;21.60;14.83;;;;;;;2.74;100.00;152069.88;5053384;28;20466;-83
2021/12/20 02:04:30;;;;;;;17.47;12.97;;;;;;;2.76;100.00;152075.00;5052097;28;20493;-82
2021/12/20 02:07:08;;;;;;;21.03;13.73;;;;;;;2.75;100.00;152072.47;5051368;28;20806;-82
2021/12/20 02:09:43;;;;;;;18.97;14.23;;;;;;;2.75;100.00;152071.16;5066961;28;20801;-82
2021/12/20 02:12:19;;;;;;;20.00;13.90;;;;;;;2.74;100.00;152068.56;5037534;28;20454;-82
2021/12/20 02:14:54;;;;;;;20.03;13.63;;;;;;;2.75;100.00;152071.16;5051073;28;20454;-83
2021/12/20 02:17:30;;;;;;;17.60;13.67;;;;;;;2.73;100.00;152065.97;5044611;28;20475;-83
2021/12/20 02:20:08;;;;;;;21.67;12.70;;;;;;;2.73;100.00;152067.28;5050291;28;20474;-83
2021/12/20 02:22:43;;;;;;;23.10;14.53;;;;;;;2.74;100.00;152069.88;5052562;28;20806;-82
2021/12/20 02:25:19;;;;;;;19.87;12.90;;;;;;;2.73;100.00;152065.97;5058015;28;20454;-83
2021/12/20 02:27:55;;;;;;;19.67;13.07;;;;;;;2.74;100.00;152068.56;5052418;28;20928;-83
2021/12/20 02:30:52;;;;;;;20.90;14.60;;;;;;;2.73;100.00;152065.97;5049989;28;20856;-82
2021/12/20 02:39:16;;;;;;;20.17;14.00;;;;;;;2.73;100.00;152065.97;5052431;28;20458;-83
2021/12/20 02:41:51;;;;;;;21.17;14.67;;;;;;;2.74;100.00;152068.56;5051249;28;20561;-83
2021/12/20 02:44:28;;;;;;;18.73;13.73;;;;;;;2.71;100.00;152062.16;5050462;28;20964;-82
2021/12/20 02:47:14;;;;;;;20.13;13.93;;;;;;;2.71;100.00;152060.84;5051769;28;20440;-82
2021/12/20 02:49:49;;;;;;;19.40;13.37;;;;;;;2.72;100.00;152063.44;5052437;28;20480;-82
2021/12/20 02:52:26;;;;;;;19.97;13.00;;;;;;;2.73;100.00;152065.97;5050377;28;20450;-83
2021/12/20 02:55:02;;;;;;;21.63;14.47;;;;;;;2.73;100.00;152067.28;5052435;28;20948;-82
2021/12/20 02:57:38;;;;;;;18.60;12.37;;;;;;;2.73;100.00;152065.97;5053776;28;20454;-83
2021/12/20 03:00:15;;;;;;;21.77;14.23;;;;;;;2.72;100.00;152063.44;5036200;28;20507;-82
2021/12/20 03:02:50;;;;;;;17.03;12.00;;;;;;;2.70;100.00;152058.31;5051714;28;20450;-83
2021/12/20 03:05:26;;;;;;;22.73;14.90;;;;;;;2.70;100.00;152058.31;5038766;28;20455;-82
2021/12/20 03:08:04;;;;;;;22.03;13.20;;;;;;;2.70;100.00;152058.31;5047450;28;20520;-82
2021/12/20 03:10:42;;;;;;;29.13;14.60;;;;;;;2.68;100.00;152054.41;5045065;28;20520;-83
2021/12/20 03:13:22;;;;;;;18.60;14.07;;;;;;;2.68;100.00;152054.41;5052041;28;20964;-83
2021/12/20 03:15:57;;;;;;;20.10;13.37;;;;;;;2.70;100.00;152058.31;5051756;28;21101;-83
2021/12/20 03:18:33;;;;;;;17.33;13.73;;;;;;;2.70;100.00;152058.31;5045344;28;20456;-82
2021/12/20 03:21:08;;;;;;;24.00;14.57;;;;;;;2.69;100.00;152055.72;5051408;28;20912;-82
2021/12/20 03:23:46;;;;;;;21.77;13.80;;;;;;;2.72;100.00;152063.44;5052671;28;20457;-82
2021/12/20 03:26:21;;;;;;;25.53;16.20;;;;;;;2.71;100.00;152060.84;5052805;28;20450;-82
2021/12/20 03:28:56;;;;;;;19.70;13.20;;;;;;;2.70;100.00;152058.31;5052591;28;20448;-82
2021/12/20 03:31:32;;;;;;;20.97;13.60;;;;;;;2.70;100.00;152058.31;5050936;28;20832;-82
2021/12/20 03:34:09;;;;;;;22.37;14.07;;;;;;;2.72;100.00;152064.75;5062482;28;20934;-82
2021/12/20 03:36:45;;;;;;;19.60;13.17;;;;;;;2.76;100.00;152073.72;5017691;28;20837;-82
2021/12/20 03:39:22;;;;;;;24.80;14.63;;;;;;;2.76;100.00;152075.00;5064777;28;20864;-82
2021/12/20 03:41:58;;;;;;;21.10;13.57;;;;;;;2.69;100.00;152055.72;5061721;28;20465;-82
2021/12/20 03:44:37;;;;;;;23.33;14.20;;;;;;;2.64;100.00;152042.84;5048848;28;20490;-82
2021/12/20 03:47:14;;;;;;;22.57;14.00;;;;;;;2.60;100.00;152032.53;5044595;28;20449;-82
2021/12/20 03:49:49;;;;;;;35.63;15.30;;;;;;;2.62;100.00;152037.72;5051113;28;20484;-82
2021/12/20 03:52:25;;;;;;;27.73;14.30;;;;;;;2.63;100.00;152040.25;5059599;28;20923;-82
2021/12/20 03:55:02;;;;;;;57.23;15.57;;;;;;;2.58;100.00;152028.72;5052392;28;20464;-82
2021/12/20 03:57:38;;;;;;;19.20;13.10;;;;;;;2.48;100.00;152003.00;5065569;28;20473;-82
2021/12/20 04:00:16;;;;;;;21.13;13.03;;;;;;;2.40;100.00;151983.72;5039666;28;20801;-82
2021/12/20 04:02:52;;;;;;;23.73;13.00;;;;;;;2.41;100.00;151984.97;5040747;28;20945;-83
2021/12/20 04:05:28;;;;;;;24.63;12.40;;;;;;;2.42;100.00;151987.53;5042484;28;20437;-82
2021/12/20 04:08:03;;;;;;;21.00;13.37;;;;;;;2.42;100.00;151987.53;5049961;28;20472;-82
2021/12/20 04:10:40;;;;;;;19.37;12.23;;;;;;;2.40;100.00;151983.72;5052260;28;20447;-82
2021/12/20 04:13:16;;;;;;;19.93;12.17;;;;;;;2.39;100.00;151981.13;5046988;28;20453;-82
2021/12/20 04:15:53;;;;;;;19.87;11.90;;;;;;;2.39;100.00;151981.13;5049277;28;20890;-83
2021/12/20 04:18:29;;;;;;;15.73;11.10;;;;;;;2.40;100.00;151983.72;5050681;28;20446;-82
2021/12/20 04:21:05;;;;;;;18.77;12.40;;;;;;;2.42;100.00;151988.84;5050182;28;20477;-82
2021/12/20 04:23:41;;;;;;;19.50;12.73;;;;;;;2.43;100.00;151990.13;5048328;28;20541;-83
2021/12/20 04:26:18;;;;;;;16.37;11.77;;;;;;;2.46;100.00;151999.09;5044547;28;20517;-82
2021/12/20 04:28:53;;;;;;;20.73;12.83;;;;;;;2.46;100.00;151997.84;5042238;28;20524;-82
2021/12/20 04:31:29;;;;;;;19.20;12.27;;;;;;;2.47;100.00;152000.41;5051873;28;20449;-82
2021/12/20 04:34:04;;;;;;;14.30;10.50;;;;;;;2.47;100.00;152001.69;5051419;28;20791;-83
2021/12/20 04:36:40;;;;;;;15.70;11.50;;;;;;;2.47;100.00;152001.69;5054846;28;20954;-82
2021/12/20 04:39:19;;;;;;;19.83;12.10;;;;;;;2.50;100.00;152008.13;5046375;28;20563;-83
2021/12/20 04:41:57;;;;;;;16.40;11.47;;;;;;;2.52;100.00;152011.97;5049170;28;20469;-83
2021/12/20 04:44:32;;;;;;;18.20;12.73;;;;;;;2.53;100.00;152015.84;5051768;28;20461;-82
2021/12/20 04:47:08;;;;;;;14.43;10.83;;;;;;;2.55;100.00;152019.69;5049758;28;20457;-82
2021/12/20 04:49:43;;;;;;;15.00;10.23;;;;;;;2.55;100.00;152020.97;5032836;28;20473;-82
2021/12/20 04:52:19;;;;;;;16.13;10.27;;;;;;;2.56;100.00;152022.28;5044434;28;20446;-82
2021/12/20 04:54:54;;;;;;;19.30;12.07;;;;;;;2.56;100.00;152022.28;5045262;28;20991;-82
2021/12/20 04:57:31;;;;;;;20.70;12.97;;;;;;;2.56;100.00;152022.28;5041482;28;20455;-82
2021/12/20 05:00:09;;;;;;;17.90;11.43;;;;;;;2.53;100.00;152015.84;5033981;28;20445;-83
2021/12/20 05:02:45;;;;;;;21.67;11.77;;;;;;;2.53;100.00;152015.84;5050236;28;20481;-82
2021/12/20 05:05:22;;;;;;;18.30;10.90;;;;;;;2.54;100.00;152017.16;5049536;28;20442;-82
2021/12/20 05:07:58;;;;;;;17.47;11.40;;;;;;;2.55;100.00;152019.69;5053333;28;20463;-83
2021/12/20 05:10:37;;;;;;;20.97;12.37;;;;;;;2.55;100.00;152019.69;5041231;28;20445;-83
2021/12/20 05:13:15;;;;;;;18.50;11.57;;;;;;;2.55;100.00;152020.97;5041625;28;20454;-83
2021/12/20 05:15:50;;;;;;;17.23;10.87;;;;;;;2.54;100.00;152018.44;5054361;28;20449;-83
2021/12/20 05:18:25;;;;;;;20.13;12.87;;;;;;;2.54;100.00;152017.16;5057040;28;20894;-83
2021/12/20 05:21:01;;;;;;;18.70;13.23;;;;;;;2.55;100.00;152019.69;5054067;28;20868;-83
2021/12/20 05:23:37;;;;;;;18.03;11.80;;;;;;;2.57;100.00;152024.88;5050118;28;20457;-83
2021/12/20 05:26:12;;;;;;;18.03;11.00;;;;;;;2.56;100.00;152023.56;5041595;28;20442;-83
2021/12/20 05:28:49;;;;;;;19.83;12.07;;;;;;;2.57;100.00;152026.13;5044270;28;20462;-83
2021/12/20 05:31:25;;;;;;;19.33;13.10;;;;;;;2.59;100.00;152030.00;5046106;28;20813;-83
2021/12/20 05:34:00;;;;;;;20.60;12.83;;;;;;;2.59;100.00;152031.28;5051483;28;20508;-83
2021/12/20 05:36:36;;;;;;;20.40;11.90;;;;;;;2.60;100.00;152033.84;5043096;28;20445;-83
2021/12/20 05:39:12;;;;;;;16.10;11.50;;;;;;;2.61;100.00;152035.13;5053372;28;20454;-83
2021/12/20 05:41:47;;;;;;;20.17;12.23;;;;;;;2.60;100.00;152032.53;5052394;28;20473;-83
2021/12/20 05:44:24;;;;;;;17.90;12.03;;;;;;;2.54;100.00;152018.44;5036993;28;20849;-83
2021/12/20 05:47:00;;;;;;;17.87;12.83;;;;;;;2.55;100.00;152019.69;5052503;28;20481;-83
2021/12/20 05:49:35;;;;;;;16.33;12.10;;;;;;;2.56;100.00;152022.28;5055018;28;20577;-83
2021/12/20 05:52:11;;;;;;;19.70;12.83;;;;;;;2.56;100.00;152023.56;5035345;28;20446;-83
2021/12/20 05:54:47;;;;;;;19.50;12.80;;;;;;;2.57;100.00;152024.88;5044460;28;20455;-83
2021/12/20 05:57:22;;;;;;;21.00;14.17;;;;;;;2.58;100.00;152027.41;5041456;28;20553;-83
2021/12/20 05:59:59;;;;;;;19.93;11.73;;;;;;;2.59;100.00;152030.00;5053436;28;20460;-83
2021/12/20 06:02:35;;;;;;;22.83;13.03;;;;;;;2.59;100.00;152030.00;5041781;28;20568;-83
2021/12/20 06:05:11;;;;;;;18.40;12.40;;;;;;;2.59;100.00;152031.28;5050453;28;20451;-83
2021/12/20 06:07:47;;;;;;;18.37;12.43;;;;;;;2.62;100.00;152037.72;5036447;28;20919;-83
2021/12/20 06:10:22;;;;;;;19.63;12.70;;;;;;;2.62;100.00;152037.72;5053108;28;20517;-83
2021/12/20 06:12:58;;;;;;;20.00;13.47;;;;;;;2.61;100.00;152035.13;5026395;28;20542;-83
2021/12/20 06:15:35;;;;;;;20.20;12.53;;;;;;;2.60;100.00;152033.84;5066438;28;20987;-83
2021/12/20 06:18:10;;;;;;;18.67;12.93;;;;;;;2.60;100.00;152032.53;5033444;28;20538;-83
2021/12/20 06:20:46;;;;;;;20.37;12.43;;;;;;;2.62;100.00;152037.72;5050559;28;20460;-83
2021/12/20 06:23:22;;;;;;;19.47;12.50;;;;;;;2.60;100.00;152032.53;5044734;28;20549;-83
2021/12/20 06:25:57;;;;;;;19.40;12.87;;;;;;;2.57;100.00;152026.13;5066814;28;20945;-83
2021/12/20 06:28:33;;;;;;;20.20;13.50;;;;;;;2.58;100.00;152027.41;5045616;28;20457;-83
2021/12/20 06:31:10;;;;;;;17.27;12.40;;;;;;;2.58;100.00;152027.41;5054183;28;20418;-83
2021/12/20 06:33:46;;;;;;;17.33;12.20;;;;;;;2.58;100.00;152027.41;5036754;28;20880;-83
2021/12/20 06:36:21;;;;;;;17.33;11.67;;;;;;;2.59;100.00;152031.28;5051152;28;20490;-83
2021/12/20 06:38:58;;;;;;;18.23;12.70;;;;;;;2.61;100.00;152035.13;5052911;28;20817;-82
2021/12/20 06:41:34;;;;;;;20.53;13.53;;;;;;;2.60;100.00;152032.53;5037260;28;20466;-83
2021/12/20 06:44:09;;;;;;;19.80;12.13;;;;;;;2.60;100.00;152032.53;5050164;28;20439;-82
2021/12/20 06:46:46;;;;;;;22.00;14.40;;;;;;;2.62;100.00;152037.72;5051644;28;20450;-83
2021/12/20 06:49:23;;;;;;;22.67;12.80;;;;;;;2.62;100.00;152038.97;5051888;28;20580;-83
2021/12/20 06:52:00;;;;;;;20.60;13.20;;;;;;;2.64;100.00;152042.84;5051940;28;20449;-83
2021/12/20 06:54:36;;;;;;;24.30;15.97;;;;;;;2.65;100.00;152045.44;5047589;28;20749;-83
2021/12/20 06:57:11;;;;;;;29.53;16.03;;;;;;;2.62;100.00;152037.72;5046049;28;20438;-83
2021/12/20 06:59:47;;;;;;;21.63;13.33;;;;;;;2.56;100.00;152023.56;5034416;28;20457;-83
2021/12/20 07:02:24;;;;;;;22.37;15.67;;;;;;;2.52;100.00;152011.97;5050183;28;20468;-83
2021/12/20 07:05:00;;;;;;;25.70;18.50;;;;;;;2.53;100.00;152014.56;5032948;28;20451;-83
2021/12/20 07:07:36;;;;;;;20.20;14.40;;;;;;;2.52;100.00;152011.97;5029082;28;20419;-83
2021/12/20 07:10:12;;;;;;;19.37;15.00;;;;;;;2.52;100.00;152011.97;5046427;28;20766;-83
2021/12/20 07:12:47;;;;;;;25.10;15.37;;;;;;;2.55;100.00;152020.97;5045397;28;20457;-83
2021/12/20 07:15:25;;;;;;;22.67;15.20;;;;;;;2.57;100.00;152024.88;5036042;28;20871;-83
2021/12/20 07:18:02;;;;;;;21.83;14.60;;;;;;;2.62;100.00;152037.72;5041350;28;20453;-83
2021/12/20 07:20:37;;;;;;;20.37;13.47;;;;;;;2.51;100.00;152009.41;5046275;28;20513;-83
2021/12/20 07:23:13;;;;;;;20.10;13.17;;;;;;;2.50;100.00;152006.84;5035718;28;20470;-83
2021/12/20 07:25:48;;;;;;;21.00;14.17;;;;;;;2.51;100.00;152010.72;5032207;28;20440;-83
2021/12/20 07:28:24;;;;;;;23.13;15.13;;;;;;;2.45;100.00;151996.56;5049128;28;20453;-83
2021/12/20 07:31:00;;;;;;;21.20;13.47;;;;;;;2.45;100.00;151996.56;5058242;28;20452;-83
2021/12/20 07:33:36;;;;;;;22.00;13.30;;;;;;;2.45;100.00;151996.56;5053515;28;20446;-83
2021/12/20 07:36:15;;;;;;;18.60;12.87;;;;;;;2.44;100.00;151993.97;5051558;28;20438;-83
2021/12/20 07:38:51;;;;;;;21.97;15.10;;;;;;;2.43;100.00;151990.13;5042220;28;20473;-83
2021/12/20 07:41:27;;;;;;;21.87;12.50;;;;;;;2.45;100.00;151996.56;5038599;28;20541;-83
2021/12/20 07:44:02;;;;;;;24.13;14.97;;;;;;;2.45;100.00;151995.28;5059445;28;20860;-83
2021/12/20 07:46:38;;;;;;;21.10;13.00;;;;;;;2.43;100.00;151991.44;5040334;28;20443;-83
2021/12/20 07:49:15;;;;;;;21.73;14.43;;;;;;;2.45;100.00;151995.28;5037999;28;20482;-83
2021/12/20 07:51:53;;;;;;;19.90;13.63;;;;;;;2.50;100.00;152006.84;5049219;28;20454;-83
2021/12/20 07:54:28;;;;;;;23.00;14.50;;;;;;;2.52;100.00;152011.97;5035975;28;20481;-83
2021/12/20 07:57:04;;;;;;;20.70;12.70;;;;;;;2.54;100.00;152018.44;5047355;28;20781;-83
2021/12/20 07:59:39;;;;;;;23.33;14.63;;;;;;;2.60;100.00;152032.53;5051623;28;20445;-83
2021/12/20 08:02:16;;;;;;;17.43;12.30;;;;;;;2.57;100.00;152024.88;5063262;28;20877;-84
2021/12/20 08:04:52;;;;;;;19.80;11.97;;;;;;;2.56;100.00;152022.28;5055286;28;20454;-83
2021/12/20 08:07:28;;;;;;;25.13;12.97;;;;;;;2.51;100.00;152009.41;5050959;28;20457;-83
2021/12/20 08:10:05;;;;;;;20.27;12.10;;;;;;;2.54;100.00;152017.16;5049250;28;20871;-83
2021/12/20 08:12:40;;;;;;;20.13;13.93;;;;;;;2.54;100.00;152017.16;5049157;28;20446;-83
2021/12/20 08:15:16;;;;;;;18.27;12.83;;;;;;;2.55;100.00;152019.69;5048107;28;20450;-83
2021/12/20 08:17:52;;;;;;;19.80;14.37;;;;;;;2.58;100.00;152027.41;5057385;28;20956;-83
2021/12/20 08:20:28;;;;;;;20.27;15.00;;;;;;;2.60;100.00;152032.53;5065909;28;20948;-83
2021/12/20 08:23:04;;;;;;;20.80;14.50;;;;;;;2.62;100.00;152038.97;5045026;28;20466;-83
2021/12/20 08:25:42;;;;;;;19.20;12.53;;;;;;;2.68;100.00;152053.13;5030739;28;20501;-83
2021/12/20 08:28:17;;;;;;;19.70;13.40;;;;;;;2.73;100.00;152065.97;5048696;28;20457;-83
2021/12/20 08:30:53;;;;;;;22.37;14.70;;;;;;;2.75;100.00;152071.16;5047148;28;20455;-83
2021/12/20 08:33:28;;;;;;;21.50;13.60;;;;;;;2.78;100.00;152078.88;5043977;28;20449;-83
2021/12/20 08:36:12;;;;;;;24.40;15.07;;;;;;;2.81;100.00;152087.84;5048213;28;20445;-83
2021/12/20 08:38:47;;;;;;;22.50;14.47;;;;;;;2.84;100.00;152094.28;5034429;28;20458;-83
2021/12/20 08:41:23;;;;;;;22.10;14.60;;;;;;;2.87;100.00;152103.31;5048902;28;20438;-83
2021/12/20 08:43:59;;;;;;;18.97;13.37;;;;;;;2.90;100.00;152111.03;5048043;28;20450;-83
2021/12/20 08:46:34;;;;;;;20.30;15.03;;;;;;;2.93;100.00;152117.47;5041327;28;20533;-83
2021/12/20 08:49:10;;;;;;;21.10;13.40;;;;;;;2.93;100.00;152117.47;5066341;28;20508;-83
2021/12/20 08:51:47;;;;;;;19.90;13.63;;;;;;;2.92;100.00;152116.16;5049463;28;20441;-83
2021/12/20 08:54:24;;;;;;;20.13;13.53;;;;;;;2.91;100.00;152112.34;5058463;28;20540;-83
2021/12/20 08:57:01;;;;;;;20.33;13.00;;;;;;;2.85;100.00;152096.88;5047160;28;20454;-83
2021/12/20 08:59:36;;;;;;;21.47;13.50;;;;;;;2.84;100.00;152095.59;5050277;28;20454;-83
2021/12/20 09:02:12;;;;;;;17.47;12.80;;;;;;;2.89;100.00;152107.16;5051119;28;20458;-83
2021/12/20 09:04:47;;;;;;;20.83;12.87;;;;;;;2.82;100.00;152090.44;5049940;28;20450;-83
2021/12/20 09:07:24;;;;;;;20.50;15.17;;;;;;;2.83;100.00;152091.75;5062810;28;20447;-83
2021/12/20 09:10:00;;;;;;;18.83;13.40;;;;;;;2.85;100.00;152096.88;5038608;28;20443;-83
2021/12/20 09:12:36;;;;;;;22.23;13.43;;;;;;;2.83;100.00;152093.00;5047403;28;20441;-83
2021/12/20 09:15:15;;;;;;;20.70;13.93;;;;;;;2.89;100.00;152107.16;5050127;28;20442;-83
2021/12/20 09:17:52;;;;;;;19.40;12.60;;;;;;;2.93;100.00;152117.47;5039217;28;20445;-83
2021/12/20 09:20:28;;;;;;;20.47;12.50;;;;;;;2.94;100.00;152121.31;5043766;28;20443;-83
2021/12/20 09:23:07;;;;;;;19.40;12.87;;;;;;;2.98;100.00;152131.63;5032075;28;20872;-83
2021/12/20 09:25:44;;;;;;;21.47;13.30;;;;;;;3.01;100.00;152139.34;5041935;28;20455;-83
2021/12/20 09:28:20;;;;;;;23.27;15.67;;;;;;;2.99;100.00;152134.16;5049647;28;20454;-83
2021/12/20 09:30:56;;;;;;;22.37;14.00;;;;;;;3.09;100.00;152158.66;5042076;28;21285;-83
2021/12/20 09:33:31;;;;;;;22.97;15.57;;;;;;;3.11;100.00;152163.78;5046197;28;20799;-83
2021/12/20 09:36:07;;;;;;;18.97;13.80;;;;;;;3.09;100.00;152158.66;5047704;28;20451;-83
2021/12/20 09:38:44;;;;;;;18.30;13.17;;;;;;;3.10;100.00;152159.94;5048625;28;20786;-83
2021/12/20 09:41:59;;;;;;;23.80;15.00;;;;;;;3.13;100.00;152167.63;5049234;28;20442;-83
2021/12/20 09:44:15;;;;;;;21.90;14.87;;;;;;;3.13;100.00;152168.91;5042832;28;20442;-83
2021/12/20 09:46:51;;;;;;;23.47;14.27;;;;;;;3.12;100.00;152165.06;5022091;28;20446;-83
2021/12/20 09:49:26;;;;;;;20.70;14.60;;;;;;;3.09;100.00;152158.66;5040150;28;20479;-83
2021/12/20 09:52:02;;;;;;;24.63;15.83;;;;;;;3.11;100.00;152163.78;5062196;28;20489;-83
2021/12/20 09:54:39;;;;;;;22.80;15.17;;;;;;;3.07;100.00;152153.50;5047337;28;20450;-83
2021/12/20 09:57:18;;;;;;;23.00;14.67;;;;;;;3.18;100.00;152180.53;5052950;28;20473;-83
2021/12/20 09:59:53;;;;;;;29.00;18.03;;;;;;;3.16;100.00;152176.66;5036159;28;20529;-83
2021/12/20 10:02:28;;;;;;;26.47;16.33;;;;;;;3.21;100.00;152188.22;5053015;28;21051;-83
2021/12/20 10:05:05;;;;;;;46.53;29.90;;;;;;;3.22;100.00;152192.09;5053586;28;20463;-83
2021/12/20 10:07:40;;;;;;;30.13;19.50;;;;;;;3.34;100.00;152222.97;5052773;28;20446;-83
2021/12/20 10:10:34;;;;;;;33.73;20.00;;;;;;;3.48;100.00;152259.00;5047181;28;20459;-83
2021/12/20 10:13:21;;;;;;;38.33;25.13;;;;;;;3.55;100.00;152275.72;5052468;28;20549;-83
2021/12/20 10:15:57;;;;;;;29.97;19.20;;;;;;;3.56;100.00;152279.63;5035720;28;20832;-83
2021/12/20 10:18:34;;;;;;;39.33;23.40;;;;;;;3.62;100.00;152293.78;5040733;28;20458;-83
2021/12/20 10:21:09;;;;;;;30.30;18.60;;;;;;;3.49;100.00;152261.59;5050367;28;20439;-84
2021/12/20 10:23:47;;;;;;;27.23;17.87;;;;;;;3.55;100.00;152277.03;5038010;28;20469;-83
2021/12/20 10:26:24;;;;;;;24.57;16.40;;;;;;;3.71;100.00;152315.69;5036329;28;20447;-83
2021/12/20 10:29:00;;;;;;;23.77;16.27;;;;;;;3.73;100.00;152320.81;5033255;28;20471;-83
2021/12/20 10:31:35;;;;;;;21.53;13.70;;;;;;;3.60;100.00;152288.66;5037508;28;20444;-83
2021/12/20 10:34:11;;;;;;;16.00;10.70;;;;;;;3.49;100.00;152260.31;5053287;28;20787;-83
2021/12/20 10:36:51;;;;;;;16.33;11.17;;;;;;;3.56;100.00;152279.63;5053053;28;20426;-83
2021/12/20 10:39:35;;;;;;;18.97;12.90;;;;;;;3.66;100.00;152304.06;5045338;28;20453;-84
2021/12/20 10:42:20;;;;;;;19.50;11.10;;;;;;;3.63;100.00;152297.63;5052462;28;20536;-84
2021/12/20 10:45:09;;;;;;;17.33;11.80;;;;;;;3.59;100.00;152286.03;5054346;28;20771;-83
2021/12/20 10:47:46;;;;;;;16.73;11.03;;;;;;;3.58;100.00;152284.75;5047927;28;20462;-83
2021/12/20 10:50:24;;;;;;;16.57;12.60;;;;;;;3.62;100.00;152293.78;5049989;28;20505;-83
2021/12/20 10:53:21;;;;;;;22.37;16.23;;;;;;;3.63;100.00;152297.63;5056442;28;20796;-83
2021/12/20 10:55:59;;;;;;;17.07;12.33;;;;;;;3.65;100.00;152301.50;5034007;28;20791;-83
2021/12/20 10:58:38;;;;;;;19.90;13.03;;;;;;;3.65;100.00;152302.75;5016700;28;20451;-83
2021/12/20 11:01:42;;;;;;;19.00;12.30;;;;;;;3.72;100.00;152318.22;5036346;28;20537;-83
2021/12/20 11:04:22;;;;;;;19.37;13.17;;;;;;;3.58;100.00;152283.47;5032370;28;20478;-83
2021/12/20 11:09:04;;;;;;;17.70;12.00;;;;;;;3.43;100.00;152246.16;5019812;28;20454;-83
2021/12/20 11:10:01;;;;;;;16.33;11.17;;;;;;;3.48;100.00;152259.00;5032583;28;20767;-83
2021/12/20 11:12:37;;;;;;;16.63;10.33;;;;;;;3.39;100.00;152234.59;5048654;28;20454;-83
2021/12/20 11:15:14;;;;;;;18.50;12.30;;;;;;;3.44;100.00;152248.69;5055167;28;20457;-83
2021/12/20 11:17:50;;;;;;;16.33;11.00;;;;;;;3.42;100.00;152243.56;5043650;28;20940;-83
2021/12/20 11:20:25;;;;;;;21.40;12.53;;;;;;;3.44;100.00;152247.44;5046095;28;20509;-83
2021/12/20 11:23:03;;;;;;;18.90;11.47;;;;;;;3.50;100.00;152264.16;5051527;28;20560;-83
2021/12/20 11:25:39;;;;;;;18.73;12.13;;;;;;;3.55;100.00;152277.03;5046012;28;20959;-83
2021/12/20 11:28:14;;;;;;;17.67;11.47;;;;;;;3.55;100.00;152277.03;5032454;28;20561;-83
2021/12/20 11:30:51;;;;;;;15.73;9.80;;;;;;;3.66;100.00;152305.34;5031954;28;20466;-84
2021/12/20 11:33:26;;;;;;;13.90;8.93;;;;;;;3.74;99.29;152324.66;5047939;28;20444;-83
2021/12/20 11:36:02;;;;;;;12.60;8.83;;;;;;;3.82;98.79;152343.97;5056802;28;20536;-83
2021/12/20 11:38:38;;;;;;;13.17;9.03;;;;;;;3.77;100.00;152332.38;5036386;28;20466;-83
2021/12/20 11:41:13;;;;;;;15.83;8.27;;;;;;;3.85;100.00;152351.69;5044418;28;20441;-83
2021/12/20 11:43:49;;;;;;;12.10;7.97;;;;;;;3.83;100.00;152346.56;5036256;28;20841;-83
2021/12/20 11:46:30;;;;;;;11.20;8.37;;;;;;;3.89;100.00;152362.00;5057912;28;20533;-83
2021/12/20 11:49:06;;;;;;;14.97;10.07;;;;;;;4.03;100.00;152398.03;5050770;28;20513;-83
2021/12/20 11:52:06;;;;;;;14.83;9.77;;;;;;;3.96;100.00;152380.03;5051083;28;20897;-83
2021/12/20 11:54:45;;;;;;;17.67;9.23;;;;;;;3.99;100.00;152387.75;5025298;28;20450;-83
2021/12/20 11:57:39;;;;;;;12.10;8.60;;;;;;;4.06;99.66;152405.78;5050585;28;20852;-83
2021/12/20 12:00:32;;;;;;;15.00;8.40;;;;;;;4.05;100.00;152404.47;5050190;28;20823;-83
2021/12/20 12:03:19;;;;;;;13.37;7.60;;;;;;;4.12;97.59;152421.25;5032921;28;20874;-83
2021/12/20 12:05:55;;;;;;;12.37;7.70;;;;;;;4.16;96.95;152431.53;5040313;28;20550;-83